Federal Sable — V7WS4 — position and weather

sailwx.info

Track history (hours):
 
Tides and Currents Weather Stations Pressure Air Temp Water Temp Dewpoint Dewpoint Depression Visibility Wind Speed Wind Dir Waves Ship Positions

Federal Sable

Last reported at 2017-Apr-19 18:44 UTC. Time now 2017-Apr-26 00:20 UTC.
Position S 02°07' W 044°09'.

Length 190 m; draft 10.4 m.

Type: Cargo ship. MMSI: 538004380.

Date/timePositionNaut miles runAvg speedWind from/ knotsBaromVisibWave heightAir tempDewpointWater temp
2017-Apr-19 18:44S 02°07' W 044°09'313.3
2017-Apr-19 18:30S 02°10' W 044°11'713.5
2017-Apr-19 18:00S 02°15' W 044°14'713.0
2017-Apr-19 17:30S 02°21' W 044°17'611.7
2017-Apr-19 17:00S 02°26' W 044°20'510.0
2017-Apr-19 16:30S 02°30' W 044°23'4 8.9
2017-Apr-19 16:00S 02°35' W 044°23'4 8.9
2017-Apr-19 15:30S 02°39' W 044°21'2 2.9
2017-Apr-19 14:59S 02°41' W 044°22'0 0.0
2017-Apr-19 14:26S 02°41' W 044°22'0 0.0
2017-Apr-19 13:20S 02°41' W 044°22'0 0.0
2017-Apr-19 12:59S 02°41' W 044°22'0 0.0
2017-Apr-18 19:17S 02°41' W 044°22'0 0.0
2017-Apr-18 18:59S 02°41' W 044°22'0 0.0
2017-Apr-18 16:56S 02°41' W 044°22'0 0.0
2017-Apr-18 16:26S 02°41' W 044°22'0 0.0
2017-Apr-18 15:59S 02°41' W 044°22'0 0.0
2017-Apr-18 15:29S 02°41' W 044°22'0 0.0
2017-Apr-18 14:11S 02°41' W 044°22'0 0.0
2017-Apr-18 13:29S 02°41' W 044°22'0 0.0
2017-Apr-18 12:59S 02°41' W 044°22'0 0.0
2017-Apr-18 12:29S 02°41' W 044°22'0 0.0
2017-Apr-18 11:59S 02°41' W 044°22'0 0.0
2017-Apr-18 11:29S 02°41' W 044°22'0 0.0
2017-Apr-18 10:59S 02°41' W 044°22'0 0.0
2017-Apr-18 10:29S 02°41' W 044°22'0 0.0
2017-Apr-18 09:59S 02°41' W 044°22'0 0.0
2017-Apr-18 09:29S 02°41' W 044°22'0 0.0
2017-Apr-18 08:59S 02°41' W 044°22'0 0.0
2017-Apr-18 08:29S 02°41' W 044°22'0 0.0
2017-Apr-18 07:59S 02°41' W 044°22'0 0.0
2017-Apr-18 07:23S 02°41' W 044°22'0 0.0
2017-Apr-18 06:59S 02°41' W 044°22'0 0.0
2017-Apr-18 06:29S 02°41' W 044°22'0 0.0
2017-Apr-18 05:59S 02°41' W 044°22'0 0.0
2017-Apr-18 05:23S 02°41' W 044°22'0 0.0
2017-Apr-18 04:59S 02°41' W 044°22'0 0.0
2017-Apr-18 04:29S 02°41' W 044°22'0 0.0
2017-Apr-18 03:59S 02°41' W 044°22'0 0.0
2017-Apr-18 03:29S 02°41' W 044°22'0 0.0
2017-Apr-18 02:59S 02°41' W 044°22'0 0.0
2017-Apr-18 02:30S 02°41' W 044°22'1 2.0
2017-Apr-18 02:00S 02°40' W 044°22'3 6.3
2017-Apr-18 01:30S 02°37' W 044°22'4 7.7
2017-Apr-18 01:00S 02°33' W 044°23'4 8.9
2017-Apr-18 00:31S 02°29' W 044°22'3 5.3
2017-Apr-18 00:01S 02°26' W 044°21'2 4.5
2017-Apr-17 23:31S 02°25' W 044°20'2 4.7
2017-Apr-17 23:01S 02°24' W 044°17'1 2.2
2017-Apr-17 22:28S 02°25' W 044°16'0 0.0
2017-Apr-17 21:58S 02°25' W 044°16'0 0.1
2017-Apr-17 21:28S 02°25' W 044°16'0 0.3
2017-Apr-17 20:58S 02°25' W 044°16'0 0.1
2017-Apr-17 20:28S 02°25' W 044°16'0 0.0
2017-Apr-17 19:58S 02°25' W 044°16'0 0.0
2017-Apr-17 19:28S 02°25' W 044°16'0 0.0
2017-Apr-17 18:58S 02°25' W 044°16'0 0.1
2017-Apr-17 18:28S 02°25' W 044°16'0 0.0
2017-Apr-17 17:58S 02°25' W 044°16'0 0.0
2017-Apr-17 17:28S 02°25' W 044°16'0 0.0
2017-Apr-17 16:58S 02°25' W 044°16'0 0.0
2017-Apr-17 16:28S 02°25' W 044°16'0 0.0
2017-Apr-17 15:52S 02°25' W 044°16'0 0.2
2017-Apr-17 15:30S 02°25' W 044°16'0 0.0
2017-Apr-17 14:58S 02°25' W 044°16'0 0.3
2017-Apr-17 14:28S 02°25' W 044°16'0 0.1
2017-Apr-17 13:28S 02°25' W 044°16'0 0.0
2017-Apr-17 12:58S 02°25' W 044°16'0 0.0
2017-Apr-17 12:28S 02°25' W 044°16'0 0.0
2017-Apr-17 11:58S 02°25' W 044°16'0 0.0
2017-Apr-17 11:28S 02°25' W 044°16'0 0.0
2017-Apr-17 10:58S 02°25' W 044°16'0 0.0
2017-Apr-17 10:28S 02°25' W 044°16'0 0.0
2017-Apr-17 10:00S 02°25' W 044°16'0 0.0
2017-Apr-17 09:28S 02°25' W 044°16'0 0.0
2017-Apr-17 08:58S 02°25' W 044°16'0 0.2
2017-Apr-17 08:28S 02°25' W 044°16'0 0.2
2017-Apr-17 07:59S 02°25' W 044°16'0 0.0
2017-Apr-17 07:28S 02°25' W 044°16'0 0.0
2017-Apr-17 06:58S 02°25' W 044°16'0 0.0
2017-Apr-17 06:28S 02°25' W 044°16'0 0.0
2017-Apr-17 05:58S 02°25' W 044°16'0 0.0
2017-Apr-17 05:28S 02°25' W 044°16'0 0.0
2017-Apr-17 04:58S 02°25' W 044°16'0 0.0
2017-Apr-17 04:28S 02°25' W 044°16'0 0.0
2017-Apr-17 03:58S 02°25' W 044°16'0 0.1
2017-Apr-17 03:28S 02°25' W 044°16'0 0.1
2017-Apr-17 02:58S 02°25' W 044°16'0 0.3
2017-Apr-17 02:28S 02°25' W 044°16'0 0.1
2017-Apr-17 01:58S 02°25' W 044°16'0 0.0
2017-Apr-17 01:29S 02°25' W 044°16'0 0.0
2017-Apr-17 00:59S 02°25' W 044°16'0 0.0
2017-Apr-17 00:25S 02°25' W 044°16'0 0.0
2017-Apr-16 23:58S 02°25' W 044°16'0 0.0
2017-Apr-16 23:28S 02°25' W 044°16'0 0.0
2017-Apr-16 22:58S 02°25' W 044°16'0 0.0
2017-Apr-16 22:28S 02°25' W 044°16'0 0.0
2017-Apr-16 21:59S 02°25' W 044°16'0 0.0
2017-Apr-16 21:29S 02°25' W 044°16'0 0.0
2017-Apr-16 20:58S 02°25' W 044°16'0 0.0
2017-Apr-16 20:30S 02°25' W 044°16'0 0.0
2017-Apr-16 19:58S 02°25' W 044°16'0 0.3
2017-Apr-16 19:25S 02°25' W 044°16'0 0.1
2017-Apr-16 18:58S 02°25' W 044°16'0 0.0
2017-Apr-16 18:28S 02°25' W 044°16'0 0.1
2017-Apr-16 17:58S 02°25' W 044°16'0 0.0
2017-Apr-16 17:28S 02°25' W 044°16'0 0.0
2017-Apr-16 16:58S 02°25' W 044°16'0 0.0
2017-Apr-16 16:28S 02°25' W 044°16'0 0.0
2017-Apr-16 15:58S 02°25' W 044°16'0 0.1
2017-Apr-16 15:28S 02°25' W 044°16'0 0.1
2017-Apr-16 15:01S 02°25' W 044°16'2 3.1
2017-Apr-16 14:28S 02°23' W 044°17'8 8.0
2017-Apr-16 13:31S 02°16' W 044°15'611.4
2017-Apr-16 13:01S 02°11' W 044°12'611.4
2017-Apr-16 12:30S 02°06' W 044°09'30817.6
2017-Apr-15 19:00N 01°42' W 040°42'   070 / 131009.010.8 29.0 26.0
Track history (hours):
 
Tides and Currents Weather Stations Pressure Air Temp Water Temp Dewpoint Dewpoint Depression Visibility Wind Speed Wind Dir Waves Ship Positions

Federal Sable

Last reported at 2017-Apr-19 18:44 UTC. Time now 2017-Apr-26 00:20 UTC.
Position S 02°07' W 044°09'.

Length 190 m; draft 10.4 m.

Type: Cargo ship. MMSI: 538004380.

Date/timePositionNaut miles runAvg speedWind from/ knotsBaromVisibWave heightAir tempDewpointWater temp
2017-Apr-19 18:44S 02°07' W 044°09'313.3
2017-Apr-19 18:30S 02°10' W 044°11'713.5
2017-Apr-19 18:00S 02°15' W 044°14'713.0
2017-Apr-19 17:30S 02°21' W 044°17'611.7
2017-Apr-19 17:00S 02°26' W 044°20'510.0
2017-Apr-19 16:30S 02°30' W 044°23'4 8.9
2017-Apr-19 16:00S 02°35' W 044°23'4 8.9
2017-Apr-19 15:30S 02°39' W 044°21'2 2.9
2017-Apr-19 14:59S 02°41' W 044°22'0 0.0
2017-Apr-19 14:26S 02°41' W 044°22'0 0.0
2017-Apr-19 13:20S 02°41' W 044°22'0 0.0
2017-Apr-19 12:59S 02°41' W 044°22'0 0.0
2017-Apr-18 19:17S 02°41' W 044°22'0 0.0
2017-Apr-18 18:59S 02°41' W 044°22'0 0.0
2017-Apr-18 16:56S 02°41' W 044°22'0 0.0
2017-Apr-18 16:26S 02°41' W 044°22'0 0.0
2017-Apr-18 15:59S 02°41' W 044°22'0 0.0
2017-Apr-18 15:29S 02°41' W 044°22'0 0.0
2017-Apr-18 14:11S 02°41' W 044°22'0 0.0
2017-Apr-18 13:29S 02°41' W 044°22'0 0.0
2017-Apr-18 12:59S 02°41' W 044°22'0 0.0
2017-Apr-18 12:29S 02°41' W 044°22'0 0.0
2017-Apr-18 11:59S 02°41' W 044°22'0 0.0
2017-Apr-18 11:29S 02°41' W 044°22'0 0.0
2017-Apr-18 10:59S 02°41' W 044°22'0 0.0
2017-Apr-18 10:29S 02°41' W 044°22'0 0.0
2017-Apr-18 09:59S 02°41' W 044°22'0 0.0
2017-Apr-18 09:29S 02°41' W 044°22'0 0.0
2017-Apr-18 08:59S 02°41' W 044°22'0 0.0
2017-Apr-18 08:29S 02°41' W 044°22'0 0.0
2017-Apr-18 07:59S 02°41' W 044°22'0 0.0
2017-Apr-18 07:23S 02°41' W 044°22'0 0.0
2017-Apr-18 06:59S 02°41' W 044°22'0 0.0
2017-Apr-18 06:29S 02°41' W 044°22'0 0.0
2017-Apr-18 05:59S 02°41' W 044°22'0 0.0
2017-Apr-18 05:23S 02°41' W 044°22'0 0.0
2017-Apr-18 04:59S 02°41' W 044°22'0 0.0
2017-Apr-18 04:29S 02°41' W 044°22'0 0.0
2017-Apr-18 03:59S 02°41' W 044°22'0 0.0
2017-Apr-18 03:29S 02°41' W 044°22'0 0.0
2017-Apr-18 02:59S 02°41' W 044°22'0 0.0
2017-Apr-18 02:30S 02°41' W 044°22'1 2.0
2017-Apr-18 02:00S 02°40' W 044°22'3 6.3
2017-Apr-18 01:30S 02°37' W 044°22'4 7.7
2017-Apr-18 01:00S 02°33' W 044°23'4 8.9
2017-Apr-18 00:31S 02°29' W 044°22'3 5.3
2017-Apr-18 00:01S 02°26' W 044°21'2 4.5
2017-Apr-17 23:31S 02°25' W 044°20'2 4.7
2017-Apr-17 23:01S 02°24' W 044°17'1 2.2
2017-Apr-17 22:28S 02°25' W 044°16'0 0.0
2017-Apr-17 21:58S 02°25' W 044°16'0 0.1
2017-Apr-17 21:28S 02°25' W 044°16'0 0.3
2017-Apr-17 20:58S 02°25' W 044°16'0 0.1
2017-Apr-17 20:28S 02°25' W 044°16'0 0.0
2017-Apr-17 19:58S 02°25' W 044°16'0 0.0
2017-Apr-17 19:28S 02°25' W 044°16'0 0.0
2017-Apr-17 18:58S 02°25' W 044°16'0 0.1
2017-Apr-17 18:28S 02°25' W 044°16'0 0.0
2017-Apr-17 17:58S 02°25' W 044°16'0 0.0
2017-Apr-17 17:28S 02°25' W 044°16'0 0.0
2017-Apr-17 16:58S 02°25' W 044°16'0 0.0
2017-Apr-17 16:28S 02°25' W 044°16'0 0.0
2017-Apr-17 15:52S 02°25' W 044°16'0 0.2
2017-Apr-17 15:30S 02°25' W 044°16'0 0.0
2017-Apr-17 14:58S 02°25' W 044°16'0 0.3
2017-Apr-17 14:28S 02°25' W 044°16'0 0.1
2017-Apr-17 13:28S 02°25' W 044°16'0 0.0
2017-Apr-17 12:58S 02°25' W 044°16'0 0.0
2017-Apr-17 12:28S 02°25' W 044°16'0 0.0
2017-Apr-17 11:58S 02°25' W 044°16'0 0.0
2017-Apr-17 11:28S 02°25' W 044°16'0 0.0
2017-Apr-17 10:58S 02°25' W 044°16'0 0.0
2017-Apr-17 10:28S 02°25' W 044°16'0 0.0
2017-Apr-17 10:00S 02°25' W 044°16'0 0.0
2017-Apr-17 09:28S 02°25' W 044°16'0 0.0
2017-Apr-17 08:58S 02°25' W 044°16'0 0.2
2017-Apr-17 08:28S 02°25' W 044°16'0 0.2
2017-Apr-17 07:59S 02°25' W 044°16'0 0.0
2017-Apr-17 07:28S 02°25' W 044°16'0 0.0
2017-Apr-17 06:58S 02°25' W 044°16'0 0.0
2017-Apr-17 06:28S 02°25' W 044°16'0 0.0
2017-Apr-17 05:58S 02°25' W 044°16'0 0.0
2017-Apr-17 05:28S 02°25' W 044°16'0 0.0
2017-Apr-17 04:58S 02°25' W 044°16'0 0.0
2017-Apr-17 04:28S 02°25' W 044°16'0 0.0
2017-Apr-17 03:58S 02°25' W 044°16'0 0.1
2017-Apr-17 03:28S 02°25' W 044°16'0 0.1
2017-Apr-17 02:58S 02°25' W 044°16'0 0.3
2017-Apr-17 02:28S 02°25' W 044°16'0 0.1
2017-Apr-17 01:58S 02°25' W 044°16'0 0.0
2017-Apr-17 01:29S 02°25' W 044°16'0 0.0
2017-Apr-17 00:59S 02°25' W 044°16'0 0.0
2017-Apr-17 00:25S 02°25' W 044°16'0 0.0
2017-Apr-16 23:58S 02°25' W 044°16'0 0.0
2017-Apr-16 23:28S 02°25' W 044°16'0 0.0
2017-Apr-16 22:58S 02°25' W 044°16'0 0.0
2017-Apr-16 22:28S 02°25' W 044°16'0 0.0
2017-Apr-16 21:59S 02°25' W 044°16'0 0.0
2017-Apr-16 21:29S 02°25' W 044°16'0 0.0
2017-Apr-16 20:58S 02°25' W 044°16'0 0.0
2017-Apr-16 20:30S 02°25' W 044°16'0 0.0
2017-Apr-16 19:58S 02°25' W 044°16'0 0.3
2017-Apr-16 19:25S 02°25' W 044°16'0 0.1
2017-Apr-16 18:58S 02°25' W 044°16'0 0.0
2017-Apr-16 18:28S 02°25' W 044°16'0 0.1
2017-Apr-16 17:58S 02°25' W 044°16'0 0.0
2017-Apr-16 17:28S 02°25' W 044°16'0 0.0
2017-Apr-16 16:58S 02°25' W 044°16'0 0.0
2017-Apr-16 16:28S 02°25' W 044°16'0 0.0
2017-Apr-16 15:58S 02°25' W 044°16'0 0.1
2017-Apr-16 15:28S 02°25' W 044°16'0 0.1
2017-Apr-16 15:01S 02°25' W 044°16'2 3.1
2017-Apr-16 14:28S 02°23' W 044°17'8 8.0
2017-Apr-16 13:31S 02°16' W 044°15'611.4
2017-Apr-16 13:01S 02°11' W 044°12'611.4
2017-Apr-16 12:30S 02°06' W 044°09'30817.6
2017-Apr-15 19:00N 01°42' W 040°42'   070 / 131009.010.8 29.0 26.0

Dump ship's entire track history